Time;durP1;ratioP1;P1;durP2;ratioP2;P2;SDS_P1;SDS_P2;PMS_P1;PMS_P2;Temp;Humidity;BMP_temperature;BMP_pressure;BME280_temperature;BME280_humidity;BME280_pressure;Samples;Min_cycle;Max_cycle;Signal;HPM_P1;HPM_P2
2022/07/05 00:02:08;;;;;;;12.60;6.00;;;;;;;18.35;78.42;100430.64;105663;1273;22676;-62
2022/07/05 00:04:37;;;;;;;14.20;5.90;;;;;;;18.35;78.56;100433.09;105873;1273;26284;-63
2022/07/05 00:07:18;;;;;;;12.60;6.30;;;;;;;18.33;78.68;100433.01;105791;1273;24357;-62
2022/07/05 00:09:48;;;;;;;13.30;5.40;;;;;;;18.32;78.87;100435.32;105634;1273;25503;-62
2022/07/05 00:12:18;;;;;;;12.90;5.30;;;;;;;18.32;78.99;100430.95;105892;1273;25504;-61
2022/07/05 00:14:48;;;;;;;11.70;5.50;;;;;;;18.30;78.87;100421.05;105762;1273;24287;-62
2022/07/05 00:17:17;;;;;;;13.30;5.90;;;;;;;18.27;78.88;100416.20;105703;1273;22576;-62
2022/07/05 00:19:46;;;;;;;13.20;5.40;;;;;;;18.28;79.04;100410.04;105867;1273;25707;-62
2022/07/05 00:22:15;;;;;;;10.70;5.80;;;;;;;18.28;79.29;100399.77;105798;1273;22997;-61
2022/07/05 00:24:45;;;;;;;11.30;5.60;;;;;;;18.27;79.28;100401.52;105746;1273;22544;-63
2022/07/05 00:27:15;;;;;;;10.80;5.40;;;;;;;18.29;79.32;100401.55;105682;1273;22793;-62
2022/07/05 00:29:44;;;;;;;11.90;6.70;;;;;;;18.29;79.55;100401.03;105718;1273;24301;-62
2022/07/05 00:32:13;;;;;;;11.60;5.50;;;;;;;18.29;79.63;100400.62;106094;1273;22567;-62
2022/07/05 00:34:43;;;;;;;14.20;6.10;;;;;;;18.27;79.93;100402.08;105926;1273;24241;-63
2022/07/05 00:37:12;;;;;;;10.90;5.50;;;;;;;18.23;79.97;100408.65;105760;1273;25376;-64
2022/07/05 00:39:41;;;;;;;10.60;5.30;;;;;;;18.20;80.16;100416.33;105743;1273;25440;-62
2022/07/05 00:42:10;;;;;;;10.70;5.20;;;;;;;18.19;80.24;100411.81;105831;1273;22544;-64
2022/07/05 00:44:41;;;;;;;12.50;5.60;;;;;;;18.20;80.52;100410.22;106017;1273;25318;-64
2022/07/05 00:47:11;;;;;;;15.00;5.20;;;;;;;18.20;80.56;100408.11;105808;1273;22603;-63
2022/07/05 00:49:41;;;;;;;12.20;5.20;;;;;;;18.20;80.53;100403.34;105850;1273;24386;-62
2022/07/05 00:52:12;;;;;;;13.40;6.30;;;;;;;18.19;80.77;100405.86;105668;1273;25544;-62
2022/07/05 00:54:41;;;;;;;15.10;6.10;;;;;;;18.16;81.02;100406.24;105745;1273;22726;-62
2022/07/05 00:57:11;;;;;;;12.50;5.80;;;;;;;18.14;81.14;100412.84;105756;1273;25262;-60
2022/07/05 00:59:39;;;;;;;13.30;6.30;;;;;;;18.13;81.19;100411.15;105713;1273;25380;-61
2022/07/05 01:02:09;;;;;;;11.20;5.40;;;;;;;18.12;81.46;100404.90;105818;1273;22713;-61
2022/07/05 01:04:38;;;;;;;13.20;5.80;;;;;;;18.10;81.17;100392.13;105948;1273;22626;-61
2022/07/05 01:07:06;;;;;;;13.60;5.90;;;;;;;18.12;81.16;100391.09;105818;1273;25274;-61
2022/07/05 01:09:36;;;;;;;17.10;7.10;;;;;;;18.14;81.25;100388.80;105881;1273;22541;-63
2022/07/05 01:12:05;;;;;;;12.60;6.00;;;;;;;18.14;81.27;100391.73;105912;1273;22694;-62
2022/07/05 01:14:35;;;;;;;11.40;4.90;;;;;;;18.13;81.36;100390.70;105721;1273;22524;-62
2022/07/05 01:17:04;;;;;;;16.90;6.30;;;;;;;18.10;81.46;100383.45;105774;1273;22553;-62
2022/07/05 01:19:33;;;;;;;16.90;5.80;;;;;;;18.10;81.53;100378.27;105859;1273;22726;-62
2022/07/05 01:22:07;;;;;;;9.50;4.90;;;;;;;18.13;81.47;100372.52;105815;1273;22579;-62
2022/07/05 01:24:37;;;;;;;13.20;5.60;;;;;;;18.16;81.50;100375.42;105573;1273;23968;-62
2022/07/05 01:27:07;;;;;;;12.90;5.00;;;;;;;18.19;81.46;100380.11;105654;1273;22539;-62
2022/07/05 01:29:36;;;;;;;14.40;5.90;;;;;;;18.20;81.30;100377.76;105809;1273;22557;-62
2022/07/05 01:32:06;;;;;;;11.70;4.40;;;;;;;18.21;81.27;100380.40;105783;1273;25541;-62
2022/07/05 01:34:37;;;;;;;;;;;;;;;18.23;81.13;100382.71;106135;1273;23004;-63
2022/07/05 01:37:06;;;;;;;13.40;5.00;;;;;;;18.24;81.10;100383.45;105982;1273;22540;-64
2022/07/05 01:39:35;;;;;;;10.50;4.10;;;;;;;18.26;80.98;100382.48;105658;1273;24379;-61
2022/07/05 01:42:05;;;;;;;11.10;4.30;;;;;;;18.28;80.97;100385.33;105983;1273;22564;-60
2022/07/05 01:44:33;;;;;;;;;;;;;;;18.29;80.85;100394.20;105824;1273;22522;-62
2022/07/05 01:47:06;;;;;;;10.20;4.40;;;;;;;18.30;80.65;100396.25;105716;1273;22566;-61
2022/07/05 01:49:44;;;;;;;11.10;3.20;;;;;;;18.31;80.66;100396.39;105738;1273;24245;-62
2022/07/05 01:52:14;;;;;;;12.80;4.10;;;;;;;18.33;80.58;100394.63;105711;1273;22538;-62
2022/07/05 01:54:43;;;;;;;12.90;4.10;;;;;;;18.36;80.58;100394.13;105796;1273;22572;-62
2022/07/05 01:57:12;;;;;;;15.60;3.90;;;;;;;18.37;80.58;100390.67;105798;1273;22545;-61
2022/07/05 01:59:41;;;;;;;13.90;4.00;;;;;;;18.39;80.41;100393.73;105775;1273;22688;-62
2022/07/05 02:02:10;;;;;;;10.10;4.00;;;;;;;18.38;80.25;100401.09;105980;1273;24250;-61
2022/07/05 02:04:39;;;;;;;11.90;4.80;;;;;;;18.39;80.19;100402.01;105862;1273;25433;-61
2022/07/05 02:07:09;;;;;;;13.70;4.70;;;;;;;18.40;80.44;100406.58;105804;1273;22561;-61
2022/07/05 02:09:39;;;;;;;11.50;4.30;;;;;;;18.39;80.41;100409.71;105742;1273;24259;-61
2022/07/05 02:12:09;;;;;;;16.70;4.90;;;;;;;18.37;80.09;100407.47;105768;1273;22538;-63
2022/07/05 02:14:38;;;;;;;10.90;4.20;;;;;;;18.38;80.28;100408.81;105952;1273;22537;-62
2022/07/05 02:17:07;;;;;;;13.90;4.40;;;;;;;18.39;80.45;100408.75;105790;1273;24304;-62
2022/07/05 02:19:38;;;;;;;12.60;4.90;;;;;;;18.39;80.54;100414.87;105859;1273;22686;-62
2022/07/05 02:22:07;;;;;;;14.80;4.60;;;;;;;18.37;80.10;100422.84;105787;1273;25359;-62
2022/07/05 02:24:36;;;;;;;11.70;3.90;;;;;;;18.37;80.11;100421.81;105811;1273;22896;-61
2022/07/05 02:27:06;;;;;;;17.70;4.80;;;;;;;18.37;80.40;100422.70;105877;1273;22562;-61
2022/07/05 02:29:34;;;;;;;12.40;4.80;;;;;;;18.37;80.46;100420.84;106106;1273;22507;-61
2022/07/05 02:32:04;;;;;;;11.70;4.80;;;;;;;18.35;80.59;100419.52;105737;1273;26532;-61
2022/07/05 02:34:33;;;;;;;11.10;4.10;;;;;;;18.33;80.42;100419.02;105821;1273;24319;-61
2022/07/05 02:37:01;;;;;;;12.90;5.00;;;;;;;18.31;80.59;100418.90;106028;1274;22540;-61
2022/07/05 02:39:30;;;;;;;13.90;5.00;;;;;;;18.29;80.64;100421.90;106023;1274;22678;-61
2022/07/05 02:41:59;;;;;;;14.10;5.00;;;;;;;18.27;80.72;100426.85;105877;1273;24289;-62
2022/07/05 02:44:28;;;;;;;13.60;5.00;;;;;;;18.24;80.85;100433.50;106196;1273;23973;-61
2022/07/05 02:46:57;;;;;;;18.30;6.10;;;;;;;18.22;80.88;100435.37;105802;1273;22507;-63
2022/07/05 02:49:26;;;;;;;16.20;5.80;;;;;;;18.20;81.01;100435.23;105625;1273;22564;-61
2022/07/05 02:51:54;;;;;;;17.30;5.40;;;;;;;18.19;81.18;100431.81;105895;1273;25364;-63
2022/07/05 02:54:23;;;;;;;14.20;5.80;;;;;;;18.17;80.96;100430.63;106004;1273;24492;-62
2022/07/05 02:56:52;;;;;;;12.50;5.10;;;;;;;18.16;80.88;100429.94;105855;1273;22555;-63
2022/07/05 02:59:21;;;;;;;13.70;5.50;;;;;;;18.16;81.05;100429.98;105792;1273;25351;-61
2022/07/05 03:01:50;;;;;;;15.80;5.30;;;;;;;18.17;81.06;100428.37;105759;1273;22541;-62
2022/07/05 03:04:19;;;;;;;16.10;5.30;;;;;;;18.18;81.21;100430.22;105997;1273;22576;-61
2022/07/05 03:06:48;;;;;;;10.80;5.30;;;;;;;18.19;81.34;100432.58;105876;1273;24374;-61
2022/07/05 03:09:17;;;;;;;15.40;5.80;;;;;;;18.18;81.40;100440.45;101661;1273;5615644;-61
2022/07/05 03:11:46;;;;;;;10.50;4.70;;;;;;;18.15;81.36;100447.96;105954;1273;22541;-61
2022/07/05 03:14:15;;;;;;;10.00;4.80;;;;;;;18.15;81.48;100449.98;106078;1274;23417;-61
2022/07/05 03:16:44;;;;;;;11.70;5.10;;;;;;;18.13;81.59;100448.77;105857;1273;22635;-61
2022/07/05 03:19:13;;;;;;;10.50;5.00;;;;;;;18.13;81.65;100450.86;106014;1273;25330;-61
2022/07/05 03:21:42;;;;;;;13.50;6.10;;;;;;;18.14;81.77;100451.58;105713;1274;22594;-63
2022/07/05 03:24:11;;;;;;;12.20;4.90;;;;;;;18.16;82.07;100450.27;105855;1273;25745;-62
2022/07/05 03:26:40;;;;;;;12.20;5.60;;;;;;;18.18;82.44;100449.23;105832;1273;22620;-61
2022/07/05 03:29:09;;;;;;;13.50;5.10;;;;;;;18.19;82.19;100453.42;106228;1273;24243;-65
2022/07/05 03:31:38;;;;;;;13.20;5.60;;;;;;;18.19;82.39;100460.41;105858;1274;22806;-61
2022/07/05 03:34:07;;;;;;;14.90;5.70;;;;;;;18.17;82.34;100460.70;105748;1274;24267;-62
2022/07/05 03:36:37;;;;;;;15.40;6.20;;;;;;;18.16;82.25;100465.54;105771;1274;22896;-62
2022/07/05 03:39:05;;;;;;;12.30;6.50;;;;;;;18.17;82.33;100471.75;105844;1274;22552;-64
2022/07/05 03:41:34;;;;;;;11.70;6.00;;;;;;;18.18;82.32;100477.99;105847;1274;22557;-61
2022/07/05 03:44:03;;;;;;;13.80;5.60;;;;;;;18.20;82.38;100479.63;105828;1274;22584;-62
2022/07/05 03:46:32;;;;;;;14.30;5.40;;;;;;;18.21;82.35;100484.91;105813;1273;25419;-61
2022/07/05 03:49:01;;;;;;;14.10;6.20;;;;;;;18.20;82.46;100494.16;105878;1274;22561;-61
2022/07/05 03:51:30;;;;;;;13.10;6.30;;;;;;;18.18;82.58;100500.40;106270;1274;24329;-61
2022/07/05 03:54:00;;;;;;;14.50;6.10;;;;;;;18.16;82.72;100503.30;105867;1273;25502;-60
2022/07/05 03:56:29;;;;;;;14.50;5.90;;;;;;;18.16;82.76;100506.39;105661;1274;22566;-62
2022/07/05 03:58:58;;;;;;;13.30;6.20;;;;;;;18.16;82.81;100509.05;105742;1274;22564;-62
2022/07/05 04:01:27;;;;;;;14.00;6.60;;;;;;;18.17;82.83;100510.06;106159;1274;22606;-61
2022/07/05 04:03:56;;;;;;;14.60;6.70;;;;;;;18.18;83.08;100514.16;105798;1273;22544;-63
2022/07/05 04:06:26;;;;;;;16.60;5.90;;;;;;;18.21;83.22;100514.70;105872;1274;22638;-62
2022/07/05 04:08:55;;;;;;;17.00;7.40;;;;;;;18.21;83.13;100513.73;105697;1274;23998;-62
2022/07/05 04:11:24;;;;;;;12.80;6.50;;;;;;;18.20;83.40;100509.13;105744;1274;24296;-61
2022/07/05 04:13:52;;;;;;;14.00;6.40;;;;;;;18.18;83.29;100504.20;105692;1274;23897;-61
2022/07/05 04:16:22;;;;;;;14.50;6.60;;;;;;;18.16;83.57;100502.47;105966;1272;25211;-61
2022/07/05 04:18:50;;;;;;;11.60;6.80;;;;;;;18.12;83.73;100503.17;105898;1274;22724;-63
2022/07/05 04:21:19;;;;;;;13.20;6.60;;;;;;;18.08;83.99;100501.20;105545;1274;22539;-60
2022/07/05 04:23:48;;;;;;;14.60;5.50;;;;;;;18.05;84.07;100500.82;105784;1274;25439;-62
2022/07/05 04:26:17;;;;;;;12.00;5.90;;;;;;;18.01;83.93;100501.04;105812;1273;22566;-61
2022/07/05 04:28:47;;;;;;;12.50;6.40;;;;;;;17.98;84.34;100503.48;105752;1274;22709;-62
2022/07/05 04:31:15;;;;;;;12.60;5.30;;;;;;;17.93;84.45;100504.33;105912;1274;24265;-61
2022/07/05 04:33:45;;;;;;;14.80;6.30;;;;;;;17.90;84.60;100504.16;105684;1274;24265;-66
2022/07/05 04:36:14;;;;;;;13.50;6.10;;;;;;;17.85;84.62;100496.48;105703;1274;22782;-61
2022/07/05 04:38:43;;;;;;;14.40;6.80;;;;;;;17.83;84.57;100488.48;105834;1274;25267;-61
2022/07/05 04:41:12;;;;;;;12.10;5.90;;;;;;;17.83;84.65;100487.81;105857;1274;22547;-62
2022/07/05 04:43:41;;;;;;;10.20;5.80;;;;;;;17.83;84.78;100491.67;105771;1274;23472;-61
2022/07/05 04:46:10;;;;;;;10.60;5.50;;;;;;;17.83;84.72;100496.70;105669;1274;22630;-61
2022/07/05 04:48:39;;;;;;;11.60;5.90;;;;;;;17.82;84.83;100500.60;105591;1274;22564;-61
2022/07/05 04:51:08;;;;;;;10.90;5.70;;;;;;;17.83;84.77;100502.80;105766;1274;22798;-61
2022/07/05 04:53:37;;;;;;;12.90;6.10;;;;;;;17.83;85.11;100506.65;105711;1274;22700;-61
2022/07/05 04:56:06;;;;;;;19.00;6.80;;;;;;;17.84;84.98;100505.05;106067;1274;24247;-61
2022/07/05 04:58:35;;;;;;;17.40;7.40;;;;;;;17.86;84.90;100512.14;105761;1274;25241;-61
2022/07/05 05:01:07;;;;;;;12.10;5.60;;;;;;;17.88;85.02;100510.17;105886;1274;22573;-62
2022/07/05 05:03:37;;;;;;;14.20;6.70;;;;;;;17.90;84.99;100512.01;106846;1273;24350;-61
2022/07/05 05:06:06;;;;;;;15.00;6.20;;;;;;;17.94;84.74;100514.91;105623;1274;25273;-62
2022/07/05 05:08:34;;;;;;;15.90;6.80;;;;;;;17.99;84.74;100514.42;105693;1274;22688;-61
2022/07/05 05:11:05;;;;;;;14.60;7.10;;;;;;;18.03;84.71;100512.70;105770;1274;24216;-61
2022/07/05 05:13:34;;;;;;;13.30;6.20;;;;;;;18.06;84.72;100514.41;105822;1274;24383;-61
2022/07/05 05:16:03;;;;;;;15.30;6.60;;;;;;;18.09;84.72;100519.17;105898;1274;24269;-62
2022/07/05 05:18:32;;;;;;;11.20;5.60;;;;;;;18.14;84.71;100525.91;105950;1274;22537;-61
2022/07/05 05:21:01;;;;;;;12.70;6.40;;;;;;;18.17;84.53;100527.33;105998;1274;24240;-63
2022/07/05 05:23:30;;;;;;;16.90;6.30;;;;;;;18.22;84.46;100529.10;105851;1274;22693;-61
2022/07/05 05:25:58;;;;;;;14.60;5.80;;;;;;;18.24;84.33;100530.27;105730;1274;24398;-61
2022/07/05 05:28:27;;;;;;;12.40;6.20;;;;;;;18.26;84.22;100534.77;106003;1274;22556;-61
2022/07/05 05:30:56;;;;;;;12.90;6.00;;;;;;;18.29;84.20;100533.40;105852;1274;25371;-62
2022/07/05 05:33:25;;;;;;;13.40;5.90;;;;;;;18.31;84.10;100536.36;105696;1274;24322;-61
2022/07/05 05:35:54;;;;;;;14.50;5.20;;;;;;;18.34;84.10;100538.70;105815;1273;23091;-61
2022/07/05 05:38:23;;;;;;;15.60;5.20;;;;;;;18.38;83.96;100542.84;105714;1273;22558;-60
2022/07/05 05:40:52;;;;;;;16.00;6.90;;;;;;;18.42;83.80;100545.71;105827;1274;22540;-61
2022/07/05 05:43:21;;;;;;;16.40;7.90;;;;;;;18.45;83.94;100544.15;105798;1274;24995;-60
2022/07/05 05:45:50;;;;;;;14.70;6.60;;;;;;;18.48;84.01;100542.73;105797;1274;23543;-61
2022/07/05 05:48:19;;;;;;;13.80;5.90;;;;;;;18.50;83.94;100534.96;105731;1273;22577;-61
2022/07/05 05:50:49;;;;;;;15.60;6.20;;;;;;;18.52;83.89;100537.30;105626;1274;23123;-62
2022/07/05 05:53:18;;;;;;;10.40;5.00;;;;;;;18.56;84.00;100532.79;105931;1273;22634;-62
2022/07/05 05:55:46;;;;;;;13.10;4.90;;;;;;;18.60;83.98;100533.13;105797;1274;25503;-62
2022/07/05 05:58:17;;;;;;;13.90;5.40;;;;;;;18.63;84.03;100542.15;105824;1274;24297;-61
2022/07/05 06:00:48;;;;;;;11.10;5.40;;;;;;;18.68;84.11;100540.67;105818;1274;22697;-62
2022/07/05 06:03:18;;;;;;;14.20;5.60;;;;;;;18.72;84.02;100534.10;105783;1274;24309;-61
2022/07/05 06:05:45;;;;;;;;;;;;;;;18.76;84.05;100534.83;105686;1274;22545;-62
2022/07/05 06:08:15;;;;;;;17.00;5.50;;;;;;;18.78;83.90;100535.01;106071;1273;24094;-61
2022/07/05 06:10:45;;;;;;;12.30;5.60;;;;;;;18.85;83.96;100535.11;105840;1273;22700;-61
2022/07/05 06:13:14;;;;;;;12.10;5.70;;;;;;;18.90;83.80;100546.15;105986;1273;22705;-61
2022/07/05 06:15:44;;;;;;;13.20;6.10;;;;;;;18.94;83.60;100548.17;105786;1273;23469;-61
2022/07/05 06:18:13;;;;;;;10.50;5.50;;;;;;;18.99;83.70;100558.56;105943;1273;22559;-61
2022/07/05 06:20:42;;;;;;;9.40;5.60;;;;;;;19.02;83.45;100567.42;105907;1273;22971;-61
2022/07/05 06:23:10;;;;;;;11.80;4.90;;;;;;;19.04;83.41;100566.12;105693;1273;22740;-61
2022/07/05 06:25:39;;;;;;;12.10;4.70;;;;;;;19.06;83.21;100569.19;105749;1274;22577;-60
2022/07/05 06:28:09;;;;;;;11.90;4.90;;;;;;;19.09;83.15;100573.39;105649;1273;22700;-60
2022/07/05 06:30:39;;;;;;;12.70;4.90;;;;;;;19.12;83.28;100574.17;105849;1273;22560;-63
2022/07/05 06:33:08;;;;;;;12.20;4.50;;;;;;;19.17;83.18;100581.70;105730;1273;25344;-61
2022/07/05 06:35:38;;;;;;;14.60;5.10;;;;;;;19.21;83.38;100579.69;105959;1273;22710;-61
2022/07/05 06:38:08;;;;;;;13.20;5.30;;;;;;;19.25;83.20;100588.29;105706;1271;24350;-61
2022/07/05 06:40:38;;;;;;;10.80;4.50;;;;;;;19.26;83.30;100591.42;105883;1273;22547;-62
2022/07/05 06:43:09;;;;;;;13.20;5.70;;;;;;;19.25;83.23;100587.52;105873;1274;22593;-61
2022/07/05 06:45:38;;;;;;;9.80;4.20;;;;;;;19.26;83.20;100597.70;106128;1273;24361;-61
2022/07/05 06:48:09;;;;;;;13.10;4.90;;;;;;;19.27;83.31;100598.55;105830;1273;24299;-61
2022/07/05 06:50:39;;;;;;;18.60;5.50;;;;;;;19.29;83.00;100596.85;105684;1273;22548;-61
2022/07/05 06:53:09;;;;;;;9.10;4.60;;;;;;;19.29;82.69;100599.46;105611;1273;25338;-60
2022/07/05 06:55:43;;;;;;;14.50;5.10;;;;;;;19.30;82.71;100604.34;105855;1274;25366;-61
2022/07/05 06:58:15;;;;;;;12.60;4.50;;;;;;;19.31;82.88;100607.98;105878;1273;25369;-59
2022/07/05 07:00:45;;;;;;;10.50;4.70;;;;;;;19.30;82.95;100610.16;105973;1273;22716;-59
2022/07/05 07:03:14;;;;;;;12.00;4.50;;;;;;;19.29;82.91;100606.70;105739;1273;25419;-62
2022/07/05 07:05:45;;;;;;;10.30;4.90;;;;;;;19.32;83.38;100602.73;105930;1273;24300;-61
2022/07/05 07:11:02;;;;;;;9.50;4.80;;;;;;;19.37;83.60;100609.71;105672;1273;24354;-65
2022/07/05 07:13:31;;;;;;;17.60;5.70;;;;;;;19.38;83.78;100615.88;105867;1273;24403;-68
2022/07/05 07:16:00;;;;;;;11.40;5.20;;;;;;;19.36;83.61;100617.23;105855;1273;23210;-69
2022/07/05 07:18:32;;;;;;;10.50;4.10;;;;;;;19.33;83.81;100615.96;105905;1273;23777;-66
2022/07/05 07:21:01;;;;;;;13.70;5.20;;;;;;;19.31;83.99;100613.70;105663;1273;22566;-65
2022/07/05 07:23:31;;;;;;;13.80;5.40;;;;;;;19.30;83.97;100615.61;105797;1273;25389;-67
2022/07/05 07:26:00;;;;;;;9.00;5.30;;;;;;;19.29;84.19;100616.86;105858;1273;24341;-66
2022/07/05 07:28:29;;;;;;;11.50;5.20;;;;;;;19.25;84.05;100612.01;106076;1273;24171;-66
2022/07/05 07:30:58;;;;;;;12.60;5.10;;;;;;;19.24;83.84;100612.59;105907;1273;22577;-67
2022/07/05 07:33:30;;;;;;;11.80;5.70;;;;;;;19.25;84.37;100608.20;105891;1274;24279;-66
2022/07/05 07:36:00;;;;;;;11.70;5.80;;;;;;;19.27;84.79;100613.52;105927;1273;24309;-66
2022/07/05 07:38:30;;;;;;;9.70;5.00;;;;;;;19.28;84.77;100613.93;105753;1273;22564;-67
2022/07/05 07:41:00;;;;;;;16.40;5.10;;;;;;;19.30;84.66;100619.22;105956;1273;24428;-67
2022/07/05 07:43:29;;;;;;;11.50;5.00;;;;;;;19.31;84.53;100619.52;106185;1273;24247;-66
2022/07/05 07:45:59;;;;;;;10.10;5.40;;;;;;;19.30;84.31;100628.48;105998;1273;25274;-67
2022/07/05 07:48:30;;;;;;;11.60;5.70;;;;;;;19.29;84.51;100627.09;105694;1273;24552;-67
2022/07/05 07:50:59;;;;;;;13.80;6.60;;;;;;;19.25;84.58;100629.45;105838;1273;24249;-66
2022/07/05 07:53:27;;;;;;;21.40;7.10;;;;;;;19.20;85.17;100626.27;105789;1273;24295;-66
2022/07/05 07:55:56;;;;;;;13.00;6.30;;;;;;;19.17;85.05;100627.44;106069;1273;22662;-69
2022/07/05 07:58:25;;;;;;;16.60;6.40;;;;;;;19.17;85.26;100627.38;106089;1273;22718;-68
2022/07/05 08:00:54;;;;;;;14.20;6.80;;;;;;;19.17;85.33;100619.92;105780;1273;22553;-67
2022/07/05 08:03:23;;;;;;;13.30;6.30;;;;;;;19.16;85.40;100618.80;105830;1273;23398;-67
2022/07/05 08:05:52;;;;;;;14.30;6.20;;;;;;;19.16;85.70;100612.06;105703;1273;22548;-66
2022/07/05 08:08:21;;;;;;;12.80;6.70;;;;;;;19.18;85.52;100608.33;105616;1273;25440;-69
2022/07/05 08:10:50;;;;;;;15.60;6.60;;;;;;;19.21;85.61;100609.02;105895;1273;22721;-65
2022/07/05 08:13:21;;;;;;;11.80;7.00;;;;;;;19.27;86.07;100611.94;105807;1273;24322;-71
2022/07/05 08:15:53;;;;;;;12.70;6.30;;;;;;;19.33;86.28;100619.73;105806;1273;22541;-65
2022/07/05 08:23:57;;;;;;;12.80;6.50;;;;;;;19.47;85.71;100619.68;105589;1273;22538;-67
2022/07/05 08:26:27;;;;;;;11.30;5.30;;;;;;;19.50;85.45;100619.25;105757;1273;22705;-65
2022/07/05 08:28:58;;;;;;;12.80;5.40;;;;;;;19.48;85.06;100620.60;105787;1273;24274;-65
2022/07/05 08:31:28;;;;;;;9.80;4.90;;;;;;;19.46;84.92;100617.12;105895;1273;22880;-67
2022/07/05 08:33:57;;;;;;;12.10;5.00;;;;;;;19.44;84.83;100621.61;106003;1273;24301;-66
2022/07/05 08:36:26;;;;;;;11.60;5.40;;;;;;;19.40;84.65;100620.13;106082;1273;22597;-66
2022/07/05 08:38:56;;;;;;;10.30;5.10;;;;;;;19.37;84.63;100626.84;105712;1273;24329;-64
2022/07/05 08:41:25;;;;;;;14.30;5.50;;;;;;;19.36;84.70;100628.04;105883;1273;22528;-64
2022/07/05 08:43:56;;;;;;;12.00;5.60;;;;;;;19.32;84.44;100628.63;106037;1273;22923;-64
2022/07/05 08:46:28;;;;;;;14.20;4.90;;;;;;;19.33;84.50;100626.25;105832;1273;25426;-63
2022/07/05 08:49:02;;;;;;;10.30;5.30;;;;;;;19.34;84.57;100620.30;106825;1264;22712;-66
2022/07/05 08:51:37;;;;;;;10.80;4.90;;;;;;;19.34;84.69;100616.02;105950;1271;22746;-67
2022/07/05 08:54:11;;;;;;;9.90;4.50;;;;;;;19.33;84.51;100615.59;106262;1271;25948;-66
2022/07/05 08:56:44;;;;;;;11.40;5.50;;;;;;;19.29;84.49;100632.66;106066;1271;24240;-66
2022/07/05 08:59:13;;;;;;;8.80;4.80;;;;;;;19.23;84.45;100642.56;106086;1271;22655;-64
2022/07/05 09:01:45;;;;;;;11.80;5.90;;;;;;;19.15;84.42;100644.38;107617;1270;24795;-67
2022/07/05 09:04:17;;;;;;;9.60;5.40;;;;;;;19.09;84.39;100641.40;105840;1270;25338;-66
2022/07/05 09:06:50;;;;;;;11.70;5.10;;;;;;;19.07;84.59;100637.55;105941;1270;22707;-65
2022/07/05 09:09:24;;;;;;;12.40;5.20;;;;;;;19.04;84.47;100640.37;105960;1270;22743;-70
2022/07/05 09:11:55;;;;;;;8.70;4.60;;;;;;;19.04;84.42;100634.55;105979;1270;23077;-64
2022/07/05 09:14:26;;;;;;;8.90;4.50;;;;;;;19.05;84.24;100623.80;106159;1271;24414;-65
2022/07/05 09:16:57;;;;;;;9.90;4.00;;;;;;;19.03;84.19;100616.05;106019;1271;22756;-64
2022/07/05 09:19:29;;;;;;;8.30;3.90;;;;;;;19.03;83.94;100626.74;105970;1270;23096;-67
2022/07/05 09:22:09;;;;;;;10.50;3.50;;;;;;;19.01;83.84;100638.90;106282;1270;22563;-65
2022/07/05 09:24:46;;;;;;;10.70;3.30;;;;;;;18.94;83.62;100641.09;106123;1271;24275;-69
2022/07/05 09:27:17;;;;;;;9.00;2.40;;;;;;;18.84;83.74;100638.43;106116;1271;25360;-64
2022/07/05 09:29:57;;;;;;;8.30;2.00;;;;;;;18.71;83.06;100627.95;105989;1270;22622;-66
2022/07/05 09:32:30;;;;;;;5.50;2.00;;;;;;;18.60;83.06;100627.87;106196;1273;22541;-64
2022/07/05 09:35:20;;;;;;;6.10;1.90;;;;;;;18.51;83.18;100634.42;106097;1265;22647;-68
2022/07/05 09:37:52;;;;;;;8.80;2.30;;;;;;;18.43;83.28;100639.30;105900;1271;22497;-66
2022/07/05 09:40:22;;;;;;;7.50;2.80;;;;;;;18.38;83.28;100645.33;105940;1271;23409;-66
2022/07/05 09:42:53;;;;;;;7.40;2.20;;;;;;;18.32;83.62;100644.02;105958;1271;25367;-65
2022/07/05 09:45:27;;;;;;;9.00;3.20;;;;;;;18.26;83.80;100646.22;106075;1270;22559;-67
2022/07/05 09:47:58;;;;;;;8.70;2.70;;;;;;;18.22;83.98;100647.13;105906;1271;25808;-65
2022/07/05 09:50:38;;;;;;;6.30;2.50;;;;;;;18.19;83.76;100646.05;106129;1271;26606;-64
2022/07/05 09:53:11;;;;;;;5.00;1.80;;;;;;;18.16;83.99;100638.06;106006;1270;24462;-64
2022/07/05 09:55:43;;;;;;;4.00;1.60;;;;;;;18.15;83.00;100634.87;106070;1270;22816;-66
2022/07/05 09:58:15;;;;;;;7.50;1.40;;;;;;;18.20;82.83;100638.29;106211;1270;25547;-66
2022/07/05 10:00:45;;;;;;;3.40;1.10;;;;;;;18.26;82.38;100639.23;106098;1271;22531;-63
2022/07/05 10:03:16;;;;;;;8.00;1.30;;;;;;;18.32;81.58;100646.49;106025;1271;22557;-64
2022/07/05 10:05:48;;;;;;;6.30;1.10;;;;;;;18.34;80.97;100652.64;105921;1271;22563;-64
2022/07/05 10:08:22;;;;;;;5.10;0.90;;;;;;;18.31;80.54;100652.97;107799;1270;25426;-66
2022/07/05 10:10:54;;;;;;;4.00;0.80;;;;;;;18.31;80.29;100651.23;106233;1271;22717;-66
2022/07/05 10:13:24;;;;;;;4.40;1.00;;;;;;;18.34;80.54;100647.20;106041;1270;22736;-64
2022/07/05 10:15:54;;;;;;;6.80;1.10;;;;;;;18.38;80.64;100644.34;105915;1273;24242;-66
2022/07/05 10:18:31;;;;;;;3.50;1.00;;;;;;;18.44;80.69;100642.08;106209;1270;25322;-65
2022/07/05 10:21:05;;;;;;;3.80;0.90;;;;;;;18.47;80.42;100639.22;105943;1271;26519;-65
2022/07/05 10:23:38;;;;;;;3.20;1.10;;;;;;;18.52;80.32;100641.20;105919;1271;22694;-64
2022/07/05 10:26:10;;;;;;;5.70;1.20;;;;;;;18.53;79.90;100643.66;105933;1271;24237;-65
2022/07/05 10:28:42;;;;;;;6.10;0.90;;;;;;;18.54;79.69;100643.02;105901;1271;22529;-66
2022/07/05 10:31:12;;;;;;;5.20;1.00;;;;;;;18.55;79.43;100646.63;106168;1271;24240;-64
2022/07/05 10:33:43;;;;;;;3.00;1.00;;;;;;;18.56;79.55;100648.25;106049;1271;22810;-65
2022/07/05 10:36:18;;;;;;;5.90;1.00;;;;;;;18.60;79.37;100647.52;105887;1271;23088;-66
2022/07/05 10:38:49;;;;;;;4.10;1.00;;;;;;;18.63;79.13;100648.64;105892;1271;25470;-65
2022/07/05 10:41:25;;;;;;;4.80;1.10;;;;;;;18.63;79.07;100646.12;106128;1271;23433;-67
2022/07/05 10:43:57;;;;;;;3.40;1.00;;;;;;;18.62;79.24;100640.57;105982;1271;25467;-67
2022/07/05 10:46:41;;;;;;;4.80;1.30;;;;;;;18.67;79.43;100640.00;106074;1271;22844;-66
2022/07/05 10:49:17;;;;;;;9.20;1.20;;;;;;;18.75;79.20;100638.66;105906;1271;22561;-67
2022/07/05 10:51:49;;;;;;;5.30;1.30;;;;;;;18.79;79.29;100641.77;105994;1271;25509;-64
2022/07/05 10:54:19;;;;;;;5.40;1.10;;;;;;;18.84;79.20;100641.48;106027;1270;24611;-67
2022/07/05 10:57:20;;;;;;;4.30;1.30;;;;;;;18.89;78.74;100642.09;106105;1270;22759;-65
2022/07/05 11:00:10;;;;;;;6.60;1.50;;;;;;;18.94;78.91;100640.98;105926;1270;22547;-65
2022/07/05 11:02:40;;;;;;;5.90;1.30;;;;;;;19.00;78.76;100639.17;106049;1270;23815;-66
2022/07/05 11:05:17;;;;;;;5.70;1.60;;;;;;;19.03;78.63;100639.35;105868;1273;26668;-67
2022/07/05 11:08:04;;;;;;;8.10;1.90;;;;;;;19.05;78.71;100639.34;105802;1273;22540;-68
2022/07/05 11:10:37;;;;;;;7.50;1.50;;;;;;;19.08;78.61;100638.11;105753;1271;24385;-66
2022/07/05 11:13:37;;;;;;;6.70;1.50;;;;;;;19.13;78.79;100638.84;105897;1270;22712;-70
2022/07/05 11:16:24;;;;;;;6.40;1.80;;;;;;;19.21;78.61;100634.34;106103;1270;25381;-68
2022/07/05 11:19:04;;;;;;;6.00;1.40;;;;;;;19.27;78.45;100630.52;106165;1266;22723;-67
2022/07/05 11:21:34;;;;;;;2.80;1.00;;;;;;;19.35;77.83;100630.83;105678;1271;24288;-66
2022/07/05 11:24:22;;;;;;;4.10;1.60;;;;;;;19.39;77.72;100635.16;105862;1273;25726;-66
2022/07/05 11:26:58;;;;;;;6.70;1.40;;;;;;;19.49;77.87;100639.33;105760;1271;24590;-65
2022/07/05 11:29:45;;;;;;;6.70;1.60;;;;;;;19.51;77.19;100634.05;105859;1273;22590;-69
2022/07/05 11:32:16;;;;;;;9.10;1.70;;;;;;;19.52;77.39;100637.55;105856;1272;22562;-66
2022/07/05 11:34:48;;;;;;;5.90;1.60;;;;;;;19.58;77.19;100637.27;105862;1271;22563;-65
2022/07/05 11:37:24;;;;;;;5.70;1.50;;;;;;;19.61;77.46;100635.34;105583;1273;22625;-67